createdAt,value
2022-09-28T00:00:14.685Z,97675.47
2022-09-28T00:01:24.033Z,97667.31
2022-09-28T00:02:28.193Z,97663.81
2022-09-28T00:03:32.480Z,97671.97
2022-09-28T00:04:35.956Z,97675.47
2022-09-28T00:05:39.451Z,97653.28
2022-09-28T00:06:43.155Z,97652.44
2022-09-28T00:07:47.668Z,97676.63
2022-09-28T00:08:52.619Z,97670.47
2022-09-28T00:09:57.120Z,97654.94
2022-09-28T00:11:06.053Z,97667.81
2022-09-28T00:12:10.706Z,97641.28
2022-09-28T00:13:14.735Z,97645.44
2022-09-28T00:14:18.753Z,97663.28
2022-09-28T00:15:24.496Z,97664.28
2022-09-28T00:16:35.291Z,97658.44
2022-09-28T00:17:38.927Z,97651.78
2022-09-28T00:18:43.720Z,97658.59
2022-09-28T00:19:47.297Z,97660.09
2022-09-28T00:21:11.259Z,97664.94
2022-09-28T00:22:17.923Z,97661.44
2022-09-28T00:23:21.468Z,97665.94
2022-09-28T00:24:27.683Z,97638.53
2022-09-28T00:25:31.827Z,97663.75
2022-09-28T00:26:35.350Z,97632.88
2022-09-28T00:27:38.943Z,97665.75
2022-09-28T00:28:42.357Z,97656.22
2022-09-28T00:29:46.184Z,97663.06
2022-09-28T00:30:56.623Z,97653.06
2022-09-28T00:47:19.834Z,97671.72
2022-09-28T00:48:28.356Z,97670.91
2022-09-28T00:50:08.357Z,97675.56
2022-09-28T00:51:13.725Z,97677.22
2022-09-28T00:52:36.186Z,97667.56
2022-09-28T00:53:44.487Z,97668.41
2022-09-28T00:54:51.405Z,97668.41
2022-09-28T00:56:04.965Z,97666.56
2022-09-28T00:57:09.776Z,97663.06
2022-09-28T00:58:20.848Z,97658.38
2022-09-28T00:59:24.952Z,97666.41
2022-09-28T01:00:28.779Z,97658.91
2022-09-28T01:01:32.496Z,97662.91
2022-09-28T01:02:36.116Z,97663.91
2022-09-28T01:03:48.802Z,97663.06
2022-09-28T01:04:53.328Z,97662.25
2022-09-28T01:06:02.346Z,97662.25
2022-09-28T01:07:08.989Z,97658.38
2022-09-28T01:08:14.758Z,97659.75
2022-09-28T01:09:22.462Z,97661.75
2022-09-28T01:10:29.098Z,97652.91
2022-09-28T01:11:37.585Z,97660.91
2022-09-28T01:12:41.340Z,97658.38
2022-09-28T01:13:48.094Z,97647.06
2022-09-28T01:14:52.956Z,97658.25
2022-09-28T01:16:15.367Z,97659.06
2022-09-28T01:17:50.374Z,97650.38
2022-09-28T01:19:05.734Z,97657.38
2022-09-28T01:20:53.903Z,97654.88
2022-09-28T01:22:38.427Z,97658.34
2022-09-28T01:24:24.046Z,97657.00
2022-09-28T01:25:58.046Z,97657.84
2022-09-28T01:27:43.121Z,97665.97
2022-09-28T01:28:56.810Z,97660.81
2022-09-28T01:30:10.547Z,97660.13
2022-09-28T01:31:18.263Z,97660.97
2022-09-28T01:33:55.696Z,97645.94
2022-09-28T01:35:16.090Z,97655.44
2022-09-28T01:36:37.109Z,97658.63
2022-09-28T01:38:04.407Z,97655.97
2022-09-28T01:39:21.749Z,97657.63
2022-09-28T01:40:28.756Z,97659.59
2022-09-28T01:41:37.043Z,97659.59
2022-09-28T01:42:45.578Z,97664.63
2022-09-28T01:43:56.111Z,97668.13
2022-09-28T01:45:12.591Z,97665.47
2022-09-28T01:46:26.005Z,97660.13
2022-09-28T01:47:37.975Z,97666.97
2022-09-28T01:48:56.898Z,97674.13
2022-09-28T01:50:12.130Z,97670.78
2022-09-28T01:51:36.649Z,97674.13
2022-09-28T01:52:59.662Z,97678.78
2022-09-28T01:54:13.793Z,97659.44
2022-09-28T01:55:32.142Z,97680.59
2022-09-28T01:56:48.701Z,97680.59
2022-09-28T01:58:04.913Z,97679.22
2022-09-28T01:59:22.972Z,97688.13
2022-09-28T02:00:28.105Z,97665.25
2022-09-28T02:01:47.065Z,97668.75
2022-09-28T02:03:12.579Z,97682.63
2022-09-28T02:04:27.775Z,97680.81
2022-09-28T02:05:36.956Z,97684.47
2022-09-28T02:07:07.763Z,97684.47
2022-09-28T02:08:52.128Z,97682.31
2022-09-28T02:10:11.017Z,97684.13
2022-09-28T02:11:21.097Z,97691.13
2022-09-28T02:12:39.793Z,97691.97
2022-09-28T02:13:55.261Z,97689.16
2022-09-28T02:15:12.793Z,97694.50
2022-09-28T02:16:45.162Z,97686.97
2022-09-28T02:17:49.888Z,97691.13
2022-09-28T02:18:53.597Z,97701.63
2022-09-28T02:19:57.167Z,97694.50
2022-09-28T02:21:13.891Z,97701.47
2022-09-28T02:22:27.674Z,97692.66
2022-09-28T02:23:36.299Z,97692.50
2022-09-28T02:25:16.487Z,97686.81
2022-09-28T02:26:27.645Z,97689.16
2022-09-28T02:27:49.591Z,97698.13
2022-09-28T02:28:53.343Z,97687.47
2022-09-28T02:29:57.425Z,97690.00
2022-09-28T02:31:01.512Z,97675.44
2022-09-28T02:32:05.320Z,97696.28
2022-09-28T02:33:16.836Z,97700.66
2022-09-28T02:34:20.427Z,97702.47
2022-09-28T02:35:24.250Z,97700.94
2022-09-28T02:36:29.028Z,97696.63
2022-09-28T02:37:32.869Z,97701.63
2022-09-28T02:38:38.055Z,97705.16
2022-09-28T02:39:41.670Z,97711.31
2022-09-28T02:41:02.609Z,97705.44
2022-09-28T02:42:40.797Z,97704.44
2022-09-28T02:44:22.141Z,97696.13
2022-09-28T02:46:02.429Z,97705.16
2022-09-28T02:47:19.521Z,97709.94
2022-09-28T02:49:20.866Z,97703.09
2022-09-28T02:50:47.228Z,97704.78
2022-09-28T02:52:28.761Z,97706.59
2022-09-28T02:53:59.718Z,97700.25
2022-09-28T02:55:44.739Z,97710.41
2022-09-28T02:57:19.829Z,97710.72
2022-09-28T02:59:00.509Z,97710.72
2022-09-28T03:00:15.569Z,97714.53
2022-09-28T03:02:12.456Z,97710.34
2022-09-28T03:03:33.427Z,97699.50
2022-09-28T03:05:18.034Z,97707.34
2022-09-28T03:06:45.961Z,97707.47
2022-09-28T03:07:58.204Z,97702.31
2022-09-28T03:09:37.838Z,97696.63
2022-09-28T03:10:57.245Z,97702.94
2022-09-28T03:12:11.430Z,97704.94
2022-09-28T03:13:17.123Z,97699.94
2022-09-28T03:14:21.433Z,97692.91
2022-09-28T03:15:29.637Z,97694.91
2022-09-28T03:16:33.471Z,97694.91
2022-09-28T03:17:37.601Z,97696.72
2022-09-28T03:18:42.404Z,97697.72
2022-09-28T03:19:45.927Z,97688.38
2022-09-28T03:20:50.204Z,97668.63
2022-09-28T03:21:55.644Z,97685.13
2022-09-28T03:23:23.789Z,97689.91
2022-09-28T03:24:22.914Z,97691.75
2022-09-28T03:25:27.088Z,97690.69
2022-09-28T03:26:30.547Z,97675.97
2022-09-28T03:27:34.444Z,97684.47
2022-09-28T03:28:38.545Z,97694.66
2022-09-28T03:29:42.126Z,97683.81
2022-09-28T03:30:46.567Z,97686.63
2022-09-28T03:31:50.470Z,97694.13
2022-09-28T03:33:02.543Z,97687.22
2022-09-28T03:34:06.276Z,97682.25
2022-09-28T03:35:13.628Z,97688.97
2022-09-28T03:36:17.343Z,97690.94
2022-09-28T03:37:20.787Z,97699.91
2022-09-28T03:38:24.790Z,97693.75
2022-09-28T03:39:28.375Z,97681.91
2022-09-28T03:40:32.156Z,97673.72
2022-09-28T03:41:35.791Z,97687.84
2022-09-28T03:42:39.242Z,97685.00
2022-09-28T03:43:42.893Z,97687.69
2022-09-28T03:44:46.433Z,97689.50
2022-09-28T03:45:59.387Z,97688.00
2022-09-28T03:47:03.126Z,97673.75
2022-09-28T03:48:06.674Z,97671.44
2022-09-28T03:49:10.768Z,97697.63
2022-09-28T03:50:15.585Z,97693.44
2022-09-28T03:51:19.681Z,97705.91
2022-09-28T03:52:23.199Z,97701.72
2022-09-28T03:53:27.085Z,97692.69
2022-09-28T03:54:30.734Z,97697.19
2022-09-28T03:55:34.501Z,97704.72
2022-09-28T03:56:38.094Z,97711.00
2022-09-28T03:57:41.581Z,97704.16
2022-09-28T03:58:45.238Z,97697.78
2022-09-28T03:59:48.963Z,97700.28
2022-09-28T04:00:52.586Z,97707.81
2022-09-28T04:01:56.185Z,97700.28
2022-09-28T04:02:59.788Z,97706.31
2022-09-28T04:04:03.315Z,97693.59
2022-09-28T04:05:07.161Z,97693.59
2022-09-28T04:06:11.121Z,97703.94
2022-09-28T04:07:15.111Z,97703.09
2022-09-28T04:08:20.011Z,97692.19
2022-09-28T04:09:23.533Z,97695.84
2022-09-28T04:10:27.363Z,97698.22
2022-09-28T04:11:42.999Z,97706.06
2022-09-28T04:12:56.803Z,97707.88
2022-09-28T04:14:00.929Z,97706.19
2022-09-28T04:15:04.969Z,97708.72
2022-09-28T04:16:10.880Z,97699.09
2022-09-28T04:17:14.628Z,97701.75
2022-09-28T04:18:18.201Z,97708.28
2022-09-28T04:19:25.385Z,97704.13
2022-09-28T04:20:28.974Z,97698.72
2022-09-28T04:21:33.000Z,97705.72
2022-09-28T04:22:37.783Z,97714.06
2022-09-28T04:23:42.398Z,97705.72
2022-09-28T04:24:46.657Z,97709.22
2022-09-28T04:25:53.585Z,97703.06
2022-09-28T04:27:17.250Z,97704.75
2022-09-28T04:28:39.509Z,97713.13
2022-09-28T04:29:44.091Z,97718.28
2022-09-28T04:30:48.373Z,97709.50
2022-09-28T04:31:55.441Z,97708.13
2022-09-28T04:32:59.040Z,97697.94
2022-09-28T04:34:02.585Z,97713.97
2022-09-28T04:35:07.097Z,97696.44
2022-09-28T04:36:11.251Z,97711.91
2022-09-28T04:37:15.107Z,97700.75
2022-09-28T04:38:30.854Z,97720.28
2022-09-28T04:39:46.168Z,97712.31
2022-09-28T04:40:51.816Z,97699.25
2022-09-28T04:41:56.080Z,97723.25
2022-09-28T04:42:59.840Z,97717.94
2022-09-28T04:44:04.074Z,97720.59
2022-09-28T04:45:08.737Z,97710.69
2022-09-28T04:46:12.697Z,97727.72
2022-09-28T04:47:16.276Z,97723.53
2022-09-28T04:48:19.752Z,97716.13
2022-09-28T04:49:25.122Z,97723.69
2022-09-28T04:50:28.629Z,97726.34
2022-09-28T04:51:33.148Z,97724.81
2022-09-28T04:52:37.991Z,97723.44
2022-09-28T04:53:41.787Z,97723.00
2022-09-28T04:54:45.904Z,97721.59
2022-09-28T04:56:00.425Z,97726.75
2022-09-28T04:57:06.288Z,97730.41
2022-09-28T04:58:09.930Z,97732.22
2022-09-28T04:59:13.604Z,97726.25
2022-09-28T05:00:17.458Z,97723.50
2022-09-28T05:01:23.937Z,97726.97
2022-09-28T05:02:28.027Z,97708.03
2022-09-28T05:03:31.657Z,97728.25
2022-09-28T05:04:35.846Z,97738.03
2022-09-28T05:05:45.820Z,97729.78
2022-09-28T05:06:49.638Z,97729.38
2022-09-28T05:07:53.248Z,97725.22
2022-09-28T05:08:57.687Z,97727.97
2022-09-28T05:10:01.677Z,97741.09
2022-09-28T05:11:08.722Z,97741.94
2022-09-28T05:12:12.779Z,97723.91
2022-09-28T05:13:19.095Z,97741.09
2022-09-28T05:14:22.774Z,97742.78
2022-09-28T05:15:26.316Z,97747.25
2022-09-28T05:16:33.835Z,97727.16
2022-09-28T05:17:37.454Z,97739.97
2022-09-28T05:18:41.082Z,97737.88
2022-09-28T05:19:44.722Z,97737.31
2022-09-28T05:20:48.260Z,97739.13
2022-09-28T05:21:51.877Z,97730.63
2022-09-28T05:22:56.388Z,97745.00
2022-09-28T05:24:07.794Z,97678.47
2022-09-28T05:25:11.527Z,97741.03
2022-09-28T05:26:15.751Z,97744.41
2022-09-28T05:27:19.586Z,97748.84
2022-09-28T05:28:29.138Z,97743.09
2022-09-28T05:29:32.969Z,97721.75
2022-09-28T05:30:37.206Z,97727.47
2022-09-28T05:31:41.193Z,97737.22
2022-09-28T05:32:47.563Z,97738.03
2022-09-28T05:33:55.592Z,97733.88
2022-09-28T05:35:01.359Z,97743.03
2022-09-28T05:36:11.141Z,97728.91
2022-09-28T05:37:14.686Z,97724.22
2022-09-28T05:38:18.238Z,97722.41
2022-09-28T05:39:24.559Z,97733.28
2022-09-28T05:40:28.304Z,97737.59
2022-09-28T05:41:32.072Z,97733.13
2022-09-28T05:42:36.004Z,97734.25
2022-09-28T05:43:39.714Z,97739.28
2022-09-28T05:44:43.524Z,97732.97
2022-09-28T05:45:49.400Z,97721.09
2022-09-28T05:46:56.569Z,97725.84
2022-09-28T05:48:00.279Z,97734.34
2022-09-28T05:49:04.261Z,97730.31
2022-09-28T05:50:11.973Z,97735.03
2022-09-28T05:51:15.689Z,97743.41
2022-09-28T05:52:20.449Z,97740.75
2022-09-28T05:53:24.579Z,97734.56
2022-09-28T05:54:28.182Z,97748.38
2022-09-28T05:55:33.037Z,97744.94
2022-09-28T05:56:36.812Z,97747.69
2022-09-28T05:57:40.534Z,97741.78
2022-09-28T05:58:44.022Z,97743.00
2022-09-28T05:59:47.628Z,97740.16
2022-09-28T06:00:56.675Z,97744.72
2022-09-28T06:02:00.810Z,97746.50
2022-09-28T06:03:12.266Z,97739.34
2022-09-28T06:04:16.591Z,97747.91
2022-09-28T06:05:20.570Z,97738.09
2022-09-28T06:06:24.310Z,97743.19
2022-09-28T06:07:28.046Z,97741.34
2022-09-28T06:08:33.691Z,97747.41
2022-09-28T06:09:37.668Z,97749.22
2022-09-28T06:10:41.905Z,97742.78
2022-09-28T06:11:45.570Z,97747.16
2022-09-28T06:23:19.812Z,97720.13
2022-09-28T06:24:24.273Z,97740.53
2022-09-28T06:25:28.681Z,97747.50
2022-09-28T06:26:32.816Z,97726.16
2022-09-28T06:27:37.311Z,97740.84
2022-09-28T06:28:40.995Z,97738.84
2022-09-28T06:29:44.536Z,97724.34
2022-09-28T06:30:48.318Z,97743.34
2022-09-28T06:31:52.033Z,97749.41
2022-09-28T06:32:58.207Z,97738.97
2022-09-28T06:34:02.578Z,97739.50
2022-09-28T06:35:06.771Z,97747.22
2022-09-28T06:36:10.702Z,97750.63
2022-09-28T06:37:14.230Z,97736.78
2022-09-28T06:38:18.461Z,97743.50
2022-09-28T06:39:22.316Z,97741.00
2022-09-28T06:40:27.052Z,97742.88
2022-09-28T06:41:30.858Z,97746.72
2022-09-28T06:42:34.970Z,97747.22
2022-09-28T06:43:41.887Z,97733.56
2022-09-28T06:44:47.188Z,97733.22
2022-09-28T06:45:54.344Z,97732.75
2022-09-28T06:46:57.994Z,97719.41
2022-09-28T06:48:03.062Z,97720.22
2022-09-28T06:49:14.162Z,97730.78
2022-09-28T06:50:20.005Z,97730.13
2022-09-28T06:51:25.154Z,97717.59
2022-09-28T06:52:29.010Z,97724.06
2022-09-28T06:53:32.822Z,97724.88
2022-09-28T06:54:36.350Z,97709.47
2022-09-28T06:55:49.352Z,97722.75
2022-09-28T06:56:55.807Z,97712.16
2022-09-28T06:58:08.085Z,97708.09
2022-09-28T06:59:11.597Z,97703.09
2022-09-28T07:00:15.715Z,97706.25
2022-09-28T07:01:22.711Z,97711.41
2022-09-28T07:02:26.575Z,97715.09
2022-09-28T07:03:30.256Z,97712.94
2022-09-28T07:04:34.135Z,97703.53
2022-09-28T07:05:46.507Z,97716.75
2022-09-28T07:06:50.892Z,97714.97
2022-09-28T07:07:58.809Z,97716.91
2022-09-28T07:09:22.245Z,97716.75
2022-09-28T07:10:32.113Z,97729.16
2022-09-28T07:11:39.787Z,97730.25
2022-09-28T07:12:43.914Z,97724.44
2022-09-28T07:13:51.173Z,97734.00
2022-09-28T07:14:57.440Z,97724.25
2022-09-28T07:16:02.070Z,97728.13
2022-09-28T07:17:13.790Z,97732.38
2022-09-28T07:18:18.876Z,97723.88
2022-09-28T07:19:23.014Z,97717.69
2022-09-28T07:20:27.671Z,97722.69
2022-09-28T07:21:31.305Z,97732.41
2022-09-28T07:22:43.123Z,97727.00
2022-09-28T07:23:53.822Z,97727.78
2022-09-28T07:24:57.999Z,97736.44
2022-09-28T07:26:08.291Z,97737.56
2022-09-28T07:27:12.600Z,97721.66
2022-09-28T07:28:17.514Z,97721.78
2022-09-28T07:29:21.573Z,97726.38
2022-09-28T07:30:27.505Z,97719.16
2022-09-28T07:31:32.418Z,97725.63
2022-09-28T07:32:37.657Z,97713.53
2022-09-28T07:33:41.891Z,97696.06
2022-09-28T07:34:46.202Z,97709.88
2022-09-28T07:35:55.725Z,97701.06
2022-09-28T07:36:59.832Z,97715.94
2022-09-28T07:38:08.745Z,97720.72
2022-09-28T07:39:12.339Z,97723.09
2022-09-28T07:40:35.063Z,97723.28
2022-09-28T07:41:40.103Z,97725.25
2022-09-28T07:42:43.692Z,97717.13
2022-09-28T07:43:47.623Z,97721.19
2022-09-28T07:44:51.629Z,97719.47
2022-09-28T07:45:55.962Z,97715.75
2022-09-28T07:46:59.585Z,97711.63
2022-09-28T07:48:04.266Z,97708.69
2022-09-28T07:49:11.414Z,97695.72
2022-09-28T07:50:16.836Z,97716.31
2022-09-28T07:51:21.535Z,97716.09
2022-09-28T07:52:26.271Z,97724.34
2022-09-28T07:53:31.087Z,97724.69
2022-09-28T07:54:34.836Z,97717.47
2022-09-28T07:55:38.313Z,97718.31
2022-09-28T07:56:42.174Z,97726.78
2022-09-28T07:57:48.255Z,97727.50
2022-09-28T07:58:52.201Z,97728.41
2022-09-28T07:59:55.907Z,97729.72
2022-09-28T08:01:03.152Z,97710.19
2022-09-28T08:02:07.074Z,97711.69
2022-09-28T08:03:10.613Z,97709.31
2022-09-28T08:04:14.207Z,97715.00
2022-09-28T08:05:18.258Z,97714.16
2022-09-28T08:06:22.108Z,97711.00
2022-09-28T08:07:26.006Z,97721.31
2022-09-28T08:08:30.178Z,97719.31
2022-09-28T08:09:34.502Z,97708.59
2022-09-28T08:10:38.283Z,97715.09
2022-09-28T08:11:44.012Z,97712.03
2022-09-28T08:12:48.056Z,97715.16
2022-09-28T08:13:55.535Z,97717.28
2022-09-28T08:15:00.287Z,97727.75
2022-09-28T08:16:05.995Z,97722.59
2022-09-28T08:17:10.873Z,97723.78
2022-09-28T08:18:14.703Z,97715.81
2022-09-28T08:19:18.366Z,97718.00
2022-09-28T08:20:40.608Z,97708.22
2022-09-28T08:21:47.458Z,97711.28
2022-09-28T08:22:51.671Z,97709.88
2022-09-28T08:23:55.926Z,97722.13
2022-09-28T08:24:59.523Z,97706.88
2022-09-28T08:26:03.148Z,97698.44
2022-09-28T08:27:07.379Z,97711.72
2022-09-28T08:28:10.871Z,97711.59
2022-09-28T08:29:15.553Z,97721.47
2022-09-28T08:30:20.169Z,97707.19
2022-09-28T08:31:23.738Z,97703.03
2022-09-28T08:32:31.245Z,97716.59
2022-09-28T08:33:35.778Z,97705.22
2022-09-28T09:12:28.801Z,97712.06
2022-09-28T09:13:51.483Z,97705.47
2022-09-28T09:15:43.453Z,97709.63
2022-09-28T09:17:14.391Z,97711.25
2022-09-28T09:19:03.751Z,97714.97
2022-09-28T09:20:32.726Z,97716.03
2022-09-28T09:21:52.708Z,97714.16
2022-09-28T09:23:06.236Z,97698.88
2022-09-28T09:24:27.294Z,97715.59
2022-09-28T09:25:56.015Z,97711.50
2022-09-28T09:27:14.660Z,97719.97
2022-09-28T09:28:38.409Z,97708.13
2022-09-28T09:30:13.450Z,97701.03
2022-09-28T09:31:29.026Z,97714.56
2022-09-28T09:33:11.936Z,97717.75
2022-09-28T09:34:24.676Z,97722.94
2022-09-28T09:35:40.403Z,97715.53
2022-09-28T09:37:22.031Z,97714.16
2022-09-28T09:39:17.614Z,97718.22
2022-09-28T09:41:21.113Z,97714.25
2022-09-28T09:42:44.964Z,97719.69
2022-09-28T09:44:13.552Z,97723.25
2022-09-28T09:45:41.343Z,97731.28
2022-09-28T09:47:08.412Z,97712.44
2022-09-28T09:48:58.786Z,97716.41
2022-09-28T09:50:15.174Z,97719.94
2022-09-28T09:51:52.004Z,97726.38
2022-09-28T09:53:13.532Z,97724.94
2022-09-28T09:54:26.111Z,97727.63
2022-09-28T09:55:46.510Z,97710.41
2022-09-28T09:57:08.214Z,97700.47
2022-09-28T09:58:46.768Z,97714.56
2022-09-28T09:59:50.844Z,97705.44
2022-09-28T10:01:07.450Z,97708.91
2022-09-28T10:02:35.129Z,97706.81
2022-09-28T10:03:45.939Z,97720.69
2022-09-28T10:04:55.275Z,97714.84
2022-09-28T10:06:07.787Z,97717.69
2022-09-28T10:07:23.751Z,97706.66
2022-09-28T10:08:29.114Z,97705.63
2022-09-28T10:09:48.489Z,97689.97
2022-09-28T10:11:25.750Z,97703.03
2022-09-28T10:12:31.194Z,97703.38
2022-09-28T10:13:35.620Z,97685.50
2022-09-28T10:14:39.493Z,97699.16
2022-09-28T10:15:43.601Z,97678.78
2022-09-28T10:16:49.969Z,97689.28
2022-09-28T10:18:00.374Z,97703.75
2022-09-28T10:19:04.188Z,97702.50
2022-09-28T10:20:15.445Z,97701.63
2022-09-28T10:21:23.205Z,97685.66
2022-09-28T10:22:31.614Z,97693.72
2022-09-28T10:23:38.683Z,97688.47
2022-09-28T10:24:47.249Z,97688.09
2022-09-28T10:25:57.506Z,97686.59
2022-09-28T10:27:12.448Z,97688.47
2022-09-28T10:28:26.475Z,97682.13
2022-09-28T10:29:43.485Z,97684.38
2022-09-28T10:30:47.385Z,97690.72
2022-09-28T10:31:54.605Z,97691.34
2022-09-28T10:33:00.965Z,97693.41
2022-09-28T10:34:08.066Z,97686.75
2022-09-28T10:35:29.683Z,97687.97
2022-09-28T10:36:52.335Z,97688.81
2022-09-28T10:38:17.578Z,97694.19
2022-09-28T10:39:53.679Z,97692.13
2022-09-28T10:41:11.651Z,97674.88
2022-09-28T10:42:27.294Z,97689.63
2022-09-28T10:43:38.692Z,97684.00
2022-09-28T10:44:58.881Z,97688.75
2022-09-28T10:46:05.276Z,97678.63
2022-09-28T10:47:15.741Z,97687.09
2022-09-28T10:48:22.478Z,97683.38
2022-09-28T10:49:28.694Z,97684.00
2022-09-28T10:50:32.664Z,97689.38
2022-09-28T10:51:44.343Z,97684.19
2022-09-28T10:52:47.901Z,97680.31
2022-09-28T10:54:02.953Z,97679.28
2022-09-28T10:55:30.043Z,97676.59
2022-09-28T10:56:40.635Z,97641.06
2022-09-28T10:57:44.250Z,97625.13
2022-09-28T10:58:47.987Z,97668.09
2022-09-28T10:59:51.945Z,97654.22
2022-09-28T11:01:09.385Z,97664.00
2022-09-28T11:02:33.492Z,97666.50
2022-09-28T11:04:02.096Z,97662.97
2022-09-28T11:05:07.981Z,97648.84
2022-09-28T11:06:12.612Z,97658.00
2022-09-28T11:07:27.779Z,97660.03
2022-09-28T11:08:39.626Z,97660.69
2022-09-28T11:09:48.849Z,97659.81
2022-09-28T11:11:16.709Z,97651.78
2022-09-28T11:12:34.506Z,97664.88
2022-09-28T11:13:46.272Z,97660.78
2022-09-28T11:14:59.186Z,97651.94
2022-09-28T11:16:03.162Z,97649.50
2022-09-28T11:17:32.932Z,97648.09
2022-09-28T11:18:36.502Z,97642.56
2022-09-28T11:19:41.194Z,97637.59
2022-09-28T11:20:45.573Z,97639.25
2022-09-28T11:21:49.390Z,97625.66
2022-09-28T11:22:58.758Z,97628.97
2022-09-28T11:24:19.635Z,97620.44
2022-09-28T11:25:28.470Z,97624.63
2022-09-28T11:26:41.103Z,97626.91
2022-09-28T11:27:53.504Z,97626.91
2022-09-28T11:28:57.222Z,97629.38
2022-09-28T11:30:01.466Z,97630.41
2022-09-28T11:31:09.202Z,97630.41
2022-09-28T11:32:15.888Z,97614.28
2022-09-28T11:33:33.654Z,97621.56
2022-09-28T11:34:58.725Z,97624.72
2022-09-28T11:36:16.891Z,97613.13
2022-09-28T11:37:42.454Z,97620.41
2022-09-28T11:39:23.192Z,97615.50
2022-09-28T11:40:42.680Z,97614.03
2022-09-28T11:42:03.383Z,97613.84
2022-09-28T11:43:43.895Z,97600.84
2022-09-28T11:44:49.702Z,97585.47
2022-09-28T11:46:26.858Z,97597.72
2022-09-28T11:48:01.258Z,97592.31
2022-09-28T11:49:27.962Z,97605.09
2022-09-28T11:50:45.698Z,97609.63
2022-09-28T11:51:54.237Z,97621.16
2022-09-28T11:53:14.751Z,97611.03
2022-09-28T11:55:25.671Z,97619.03
2022-09-28T11:56:43.415Z,97602.88
2022-09-28T11:58:01.635Z,97604.66
2022-09-28T11:59:22.823Z,97600.31
2022-09-28T12:00:28.760Z,97600.31
2022-09-28T12:02:00.534Z,97604.84
2022-09-28T12:03:34.202Z,97560.84
2022-09-28T12:04:53.131Z,97599.69
2022-09-28T12:06:04.777Z,97594.31
2022-09-28T12:07:38.540Z,97608.75
2022-09-28T12:09:03.403Z,97585.50
2022-09-28T12:10:45.388Z,97594.25
2022-09-28T12:11:58.901Z,97585.50
2022-09-28T12:13:28.603Z,97585.50
2022-09-28T12:14:39.877Z,97570.75
2022-09-28T12:16:15.046Z,97568.34
2022-09-28T12:17:32.924Z,97563.34
2022-09-28T12:19:03.982Z,97566.69
2022-09-28T12:20:30.613Z,97545.56
2022-09-28T12:21:55.806Z,97549.09
2022-09-28T12:23:21.207Z,97562.13
2022-09-28T12:24:52.928Z,97562.31
2022-09-28T12:26:04.735Z,97565.44
2022-09-28T12:27:26.140Z,97564.63
2022-09-28T12:28:39.970Z,97556.72
2022-09-28T12:30:13.932Z,97565.03
2022-09-28T12:31:34.259Z,97563.19
2022-09-28T12:33:00.372Z,97576.44
2022-09-28T12:34:05.219Z,97560.69
2022-09-28T12:35:58.302Z,97554.53
2022-09-28T12:37:36.510Z,97557.69
2022-09-28T12:39:19.160Z,97554.59
2022-09-28T12:40:37.565Z,97547.09
2022-09-28T12:42:46.186Z,97546.94
2022-09-28T12:44:06.062Z,97553.59
2022-09-28T12:46:10.398Z,97555.75
2022-09-28T12:47:37.778Z,97545.81
2022-09-28T12:51:20.645Z,97546.84
2022-09-28T12:52:37.825Z,97550.56
2022-09-28T12:54:18.485Z,97518.50
2022-09-28T12:55:37.195Z,97532.41
2022-09-28T12:57:05.684Z,97535.72
2022-09-28T12:58:33.080Z,97533.66
2022-09-28T13:00:02.421Z,97538.84
2022-09-28T13:01:24.272Z,97542.56
2022-09-28T13:03:02.015Z,97534.72
2022-09-28T13:04:32.261Z,97532.66
2022-09-28T13:06:06.115Z,97524.22
2022-09-28T13:07:30.541Z,97530.22
2022-09-28T13:08:40.600Z,97511.16
2022-09-28T13:09:59.218Z,97529.41
2022-09-28T13:11:32.047Z,97524.25
2022-09-28T13:13:28.247Z,97535.66
2022-09-28T13:15:04.348Z,97531.94
2022-09-28T13:16:44.497Z,97527.38
2022-09-28T13:18:16.114Z,97536.91
2022-09-28T13:19:49.049Z,97534.03
2022-09-28T13:21:46.041Z,97517.66
2022-09-28T13:23:20.017Z,97533.03
2022-09-28T13:24:33.492Z,97537.16
2022-09-28T13:25:52.237Z,97534.03
2022-09-28T13:27:03.114Z,97534.50
2022-09-28T13:28:07.042Z,97528.91
2022-09-28T13:29:18.385Z,97529.34
2022-09-28T13:30:22.753Z,97521.28
2022-09-28T13:31:33.956Z,97519.41
2022-09-28T13:32:41.091Z,97520.63
2022-09-28T13:33:47.675Z,97523.31
2022-09-28T13:34:51.689Z,97532.03
2022-09-28T13:35:55.386Z,97519.59
2022-09-28T13:37:20.421Z,97528.31
2022-09-28T13:38:24.025Z,97533.69
2022-09-28T13:39:46.166Z,97534.06
2022-09-28T13:41:04.871Z,97528.69
2022-09-28T13:42:11.965Z,97521.03
2022-09-28T13:43:43.321Z,97534.91
2022-09-28T13:45:20.511Z,97525.38
2022-09-28T13:47:00.607Z,97516.28
2022-09-28T13:48:13.586Z,97516.28
2022-09-28T13:50:00.820Z,97504.06
2022-09-28T13:51:38.306Z,97515.03
2022-09-28T13:53:17.503Z,97511.69
2022-09-28T13:54:45.531Z,97510.66
2022-09-28T13:56:19.413Z,97512.50
2022-09-28T13:57:42.082Z,97523.50
2022-09-28T13:59:29.102Z,97536.94
2022-09-28T14:00:53.484Z,97527.63
2022-09-28T14:02:43.054Z,97529.09
2022-09-28T14:04:19.184Z,97534.66
2022-09-28T14:05:46.995Z,97546.47
2022-09-28T14:07:33.777Z,97541.47
2022-09-28T14:09:08.706Z,97542.28
2022-09-28T14:10:21.216Z,97543.94
2022-09-28T14:11:27.565Z,97550.16
2022-09-28T14:12:33.865Z,97548.69
2022-09-28T14:13:43.178Z,97546.00
2022-09-28T14:14:50.272Z,97545.38
2022-09-28T14:15:54.139Z,97550.97
2022-09-28T14:17:23.869Z,97553.00
2022-09-28T14:18:34.374Z,97539.75
2022-09-28T14:19:39.342Z,97543.47
2022-09-28T14:21:06.539Z,97543.91
2022-09-28T14:23:10.895Z,97535.56
2022-09-28T14:24:32.380Z,97545.72
2022-09-28T14:26:20.565Z,97527.63
2022-09-28T14:28:13.076Z,97539.28
2022-09-28T14:29:31.828Z,97529.13
2022-09-28T14:30:48.495Z,97518.97
2022-09-28T14:31:52.391Z,97527.88
2022-09-28T14:32:59.711Z,97524.75
2022-09-28T14:34:04.683Z,97523.09
2022-09-28T14:35:31.562Z,97527.63
2022-09-28T14:37:07.742Z,97506.47
2022-09-28T14:38:38.347Z,97514.97
2022-09-28T14:40:13.158Z,97523.59
2022-09-28T14:41:17.846Z,97520.91
2022-09-28T14:42:25.981Z,97506.44
2022-09-28T14:43:45.773Z,97522.16
2022-09-28T14:45:06.779Z,97515.94
2022-09-28T14:46:11.438Z,97519.47
2022-09-28T14:47:41.053Z,97502.72
2022-09-28T14:48:55.340Z,97505.16
2022-09-28T14:50:21.963Z,97502.91
2022-09-28T14:51:30.299Z,97496.91
2022-09-28T14:52:47.422Z,97501.03
2022-09-28T14:53:56.589Z,97497.72
2022-09-28T14:55:00.371Z,97499.38
2022-09-28T14:56:09.070Z,97499.31
2022-09-28T14:57:20.257Z,97490.44
2022-09-28T14:58:30.052Z,97488.97
2022-09-28T14:59:41.860Z,97501.59
2022-09-28T15:00:49.234Z,97500.97
2022-09-28T15:02:11.714Z,97503.88
2022-09-28T15:03:16.343Z,97498.69
2022-09-28T15:04:21.264Z,97504.25
2022-09-28T15:05:36.064Z,97496.16
2022-09-28T15:06:51.385Z,97489.53
2022-09-28T15:07:56.537Z,97505.69
2022-09-28T15:09:00.003Z,97497.38
2022-09-28T15:10:26.620Z,97505.22
2022-09-28T15:11:31.676Z,97491.34
2022-09-28T15:12:35.375Z,97505.84
2022-09-28T15:13:40.831Z,97512.03
2022-09-28T15:14:59.761Z,97510.38
2022-09-28T15:16:14.661Z,97515.94
2022-09-28T15:17:24.671Z,97526.25
2022-09-28T15:19:01.615Z,97508.81
2022-09-28T15:20:30.055Z,97509.63
2022-09-28T15:21:41.195Z,97521.44
2022-09-28T15:22:50.619Z,97516.91
2022-09-28T15:23:55.405Z,97486.03
2022-09-28T15:25:03.012Z,97506.94
2022-09-28T15:26:22.236Z,97514.00
2022-09-28T15:27:35.496Z,97515.81
2022-09-28T15:28:45.184Z,97529.44